sensor_id;sensor_type;location;lat;lon;timestamp;temperature;humidity
58933;DHT22;44716;51.022;6.818;2023-03-23T00:00:53;23.60;57.10
58933;DHT22;44716;51.022;6.818;2023-03-23T00:03:19;23.50;57.20
58933;DHT22;44716;51.022;6.818;2023-03-23T00:05:47;23.50;57.10
58933;DHT22;44716;51.022;6.818;2023-03-23T00:08:21;23.50;57.10
58933;DHT22;44716;51.022;6.818;2023-03-23T00:10:50;23.50;57.30
58933;DHT22;44716;51.022;6.818;2023-03-23T00:13:18;23.50;57.30
58933;DHT22;44716;51.022;6.818;2023-03-23T00:15:45;23.40;57.10
58933;DHT22;44716;51.022;6.818;2023-03-23T00:18:11;23.40;57.40
58933;DHT22;44716;51.022;6.818;2023-03-23T00:20:51;23.40;57.30
58933;DHT22;44716;51.022;6.818;2023-03-23T00:23:17;23.30;57.40
58933;DHT22;44716;51.022;6.818;2023-03-23T00:25:47;23.30;57.20
58933;DHT22;44716;51.022;6.818;2023-03-23T00:28:14;23.30;57.10
58933;DHT22;44716;51.022;6.818;2023-03-23T00:30:42;23.30;57.00
58933;DHT22;44716;51.022;6.818;2023-03-23T00:33:10;23.30;57.10
58933;DHT22;44716;51.022;6.818;2023-03-23T00:35:38;23.30;56.20
58933;DHT22;44716;51.022;6.818;2023-03-23T00:38:04;23.20;57.40
58933;DHT22;44716;51.022;6.818;2023-03-23T00:40:29;23.20;56.30
58933;DHT22;44716;51.022;6.818;2023-03-23T00:42:56;23.20;57.30
58933;DHT22;44716;51.022;6.818;2023-03-23T00:45:21;23.20;57.60
58933;DHT22;44716;51.022;6.818;2023-03-23T00:47:49;23.20;57.00
58933;DHT22;44716;51.022;6.818;2023-03-23T00:50:16;23.10;57.50
58933;DHT22;44716;51.022;6.818;2023-03-23T00:52:42;23.10;57.60
58933;DHT22;44716;51.022;6.818;2023-03-23T00:55:08;23.10;56.90
58933;DHT22;44716;51.022;6.818;2023-03-23T00:57:34;23.10;57.50
58933;DHT22;44716;51.022;6.818;2023-03-23T00:59:59;23.10;57.40
58933;DHT22;44716;51.022;6.818;2023-03-23T01:02:25;23.00;57.40
58933;DHT22;44716;51.022;6.818;2023-03-23T01:04:51;23.00;57.70
58933;DHT22;44716;51.022;6.818;2023-03-23T01:07:18;23.00;57.70
58933;DHT22;44716;51.022;6.818;2023-03-23T01:09:43;23.00;57.70
58933;DHT22;44716;51.022;6.818;2023-03-23T01:12:10;23.00;57.70
58933;DHT22;44716;51.022;6.818;2023-03-23T01:14:36;23.00;57.80
58933;DHT22;44716;51.022;6.818;2023-03-23T01:17:02;23.00;57.90
58933;DHT22;44716;51.022;6.818;2023-03-23T01:19:27;23.00;57.10
58933;DHT22;44716;51.022;6.818;2023-03-23T01:21:53;22.90;56.80
58933;DHT22;44716;51.022;6.818;2023-03-23T01:24:21;22.90;57.90
58933;DHT22;44716;51.022;6.818;2023-03-23T01:26:47;22.90;58.00
58933;DHT22;44716;51.022;6.818;2023-03-23T01:29:13;22.90;58.10
58933;DHT22;44716;51.022;6.818;2023-03-23T01:31:39;22.90;57.80
58933;DHT22;44716;51.022;6.818;2023-03-23T01:34:04;22.90;58.10
58933;DHT22;44716;51.022;6.818;2023-03-23T01:36:33;22.90;58.10
58933;DHT22;44716;51.022;6.818;2023-03-23T01:39:00;22.80;58.00
58933;DHT22;44716;51.022;6.818;2023-03-23T01:41:28;22.80;58.10
58933;DHT22;44716;51.022;6.818;2023-03-23T01:44:01;22.80;57.50
58933;DHT22;44716;51.022;6.818;2023-03-23T01:46:28;22.80;58.20
58933;DHT22;44716;51.022;6.818;2023-03-23T01:48:55;22.80;57.90
58933;DHT22;44716;51.022;6.818;2023-03-23T01:51:23;22.80;58.20
58933;DHT22;44716;51.022;6.818;2023-03-23T01:53:54;22.80;58.30
58933;DHT22;44716;51.022;6.818;2023-03-23T01:56:22;22.80;58.40
58933;DHT22;44716;51.022;6.818;2023-03-23T01:58:52;22.70;58.30
58933;DHT22;44716;51.022;6.818;2023-03-23T02:01:18;22.70;58.30
58933;DHT22;44716;51.022;6.818;2023-03-23T02:03:46;22.70;58.10
58933;DHT22;44716;51.022;6.818;2023-03-23T02:06:13;22.70;58.40
58933;DHT22;44716;51.022;6.818;2023-03-23T02:08:39;22.70;58.30
58933;DHT22;44716;51.022;6.818;2023-03-23T02:11:11;22.70;58.40
58933;DHT22;44716;51.022;6.818;2023-03-23T02:13:37;22.60;56.50
58933;DHT22;44716;51.022;6.818;2023-03-23T02:16:20;22.60;57.90
58933;DHT22;44716;51.022;6.818;2023-03-23T02:26:59;22.60;58.50
58933;DHT22;44716;51.022;6.818;2023-03-23T02:32:20;22.60;58.60
58933;DHT22;44716;51.022;6.818;2023-03-23T02:37:42;22.50;58.60
58933;DHT22;44716;51.022;6.818;2023-03-23T02:40:12;22.50;58.00
58933;DHT22;44716;51.022;6.818;2023-03-23T02:42:42;22.50;58.60
58933;DHT22;44716;51.022;6.818;2023-03-23T02:45:09;22.50;58.70
58933;DHT22;44716;51.022;6.818;2023-03-23T02:47:36;22.50;58.40
58933;DHT22;44716;51.022;6.818;2023-03-23T02:50:03;22.50;58.40
58933;DHT22;44716;51.022;6.818;2023-03-23T02:52:30;22.50;57.80
58933;DHT22;44716;51.022;6.818;2023-03-23T02:54:57;22.40;58.00
58933;DHT22;44716;51.022;6.818;2023-03-23T02:57:24;22.40;56.90
58933;DHT22;44716;51.022;6.818;2023-03-23T02:59:51;22.40;58.70
58933;DHT22;44716;51.022;6.818;2023-03-23T03:02:17;22.40;57.90
58933;DHT22;44716;51.022;6.818;2023-03-23T03:04:46;22.30;57.90
58933;DHT22;44716;51.022;6.818;2023-03-23T03:07:17;22.30;57.60
58933;DHT22;44716;51.022;6.818;2023-03-23T03:09:50;22.30;58.70
58933;DHT22;44716;51.022;6.818;2023-03-23T03:14:47;22.30;58.10
58933;DHT22;44716;51.022;6.818;2023-03-23T03:17:24;22.30;57.40
58933;DHT22;44716;51.022;6.818;2023-03-23T03:20:01;22.30;57.10
58933;DHT22;44716;51.022;6.818;2023-03-23T03:22:36;22.30;58.10
58933;DHT22;44716;51.022;6.818;2023-03-23T03:25:06;22.30;58.30
58933;DHT22;44716;51.022;6.818;2023-03-23T03:27:32;22.30;56.90
58933;DHT22;44716;51.022;6.818;2023-03-23T03:30:02;22.20;58.20
58933;DHT22;44716;51.022;6.818;2023-03-23T03:32:31;22.20;58.10
58933;DHT22;44716;51.022;6.818;2023-03-23T03:35:02;22.20;58.70
58933;DHT22;44716;51.022;6.818;2023-03-23T03:37:37;22.20;58.70
58933;DHT22;44716;51.022;6.818;2023-03-23T03:40:12;22.20;58.50
58933;DHT22;44716;51.022;6.818;2023-03-23T03:42:38;22.20;56.80
58933;DHT22;44716;51.022;6.818;2023-03-23T03:45:04;22.20;58.80
58933;DHT22;44716;51.022;6.818;2023-03-23T03:47:33;22.20;58.50
58933;DHT22;44716;51.022;6.818;2023-03-23T03:49:59;22.20;58.40
58933;DHT22;44716;51.022;6.818;2023-03-23T03:52:24;22.20;57.20
58933;DHT22;44716;51.022;6.818;2023-03-23T03:54:50;22.20;58.80
58933;DHT22;44716;51.022;6.818;2023-03-23T03:57:16;22.20;57.50
58933;DHT22;44716;51.022;6.818;2023-03-23T03:59:43;22.20;57.30
58933;DHT22;44716;51.022;6.818;2023-03-23T04:02:09;22.20;57.50
58933;DHT22;44716;51.022;6.818;2023-03-23T04:04:35;22.20;58.90
58933;DHT22;44716;51.022;6.818;2023-03-23T04:07:00;22.10;58.50
58933;DHT22;44716;51.022;6.818;2023-03-23T04:09:28;22.10;58.90
58933;DHT22;44716;51.022;6.818;2023-03-23T04:11:53;22.10;58.60
58933;DHT22;44716;51.022;6.818;2023-03-23T04:14:19;22.10;58.40
58933;DHT22;44716;51.022;6.818;2023-03-23T04:16:44;22.10;57.20
58933;DHT22;44716;51.022;6.818;2023-03-23T04:19:10;22.10;59.00
58933;DHT22;44716;51.022;6.818;2023-03-23T04:21:37;22.10;58.90
58933;DHT22;44716;51.022;6.818;2023-03-23T04:24:06;22.10;58.60
58933;DHT22;44716;51.022;6.818;2023-03-23T04:26:32;22.10;59.00
58933;DHT22;44716;51.022;6.818;2023-03-23T04:28:58;22.10;59.00
58933;DHT22;44716;51.022;6.818;2023-03-23T04:31:25;22.10;59.00
58933;DHT22;44716;51.022;6.818;2023-03-23T04:33:51;22.10;59.10
58933;DHT22;44716;51.022;6.818;2023-03-23T04:36:19;22.10;58.40
58933;DHT22;44716;51.022;6.818;2023-03-23T04:38:47;22.10;59.00
58933;DHT22;44716;51.022;6.818;2023-03-23T04:41:13;22.10;59.10
58933;DHT22;44716;51.022;6.818;2023-03-23T04:43:38;22.00;58.60
58933;DHT22;44716;51.022;6.818;2023-03-23T04:46:07;22.00;59.00
58933;DHT22;44716;51.022;6.818;2023-03-23T04:48:33;22.10;58.30
58933;DHT22;44716;51.022;6.818;2023-03-23T04:51:03;22.00;59.10
58933;DHT22;44716;51.022;6.818;2023-03-23T04:53:29;22.00;58.30
58933;DHT22;44716;51.022;6.818;2023-03-23T04:55:55;22.00;59.10
58933;DHT22;44716;51.022;6.818;2023-03-23T04:58:21;22.00;58.70
58933;DHT22;44716;51.022;6.818;2023-03-23T05:00:48;22.00;59.10
58933;DHT22;44716;51.022;6.818;2023-03-23T05:03:18;22.00;59.10
58933;DHT22;44716;51.022;6.818;2023-03-23T05:05:43;22.00;58.90
58933;DHT22;44716;51.022;6.818;2023-03-23T05:08:15;22.00;57.70
58933;DHT22;44716;51.022;6.818;2023-03-23T05:10:40;21.90;57.20
58933;DHT22;44716;51.022;6.818;2023-03-23T05:13:06;21.90;57.90
58933;DHT22;44716;51.022;6.818;2023-03-23T05:15:31;21.90;59.20
58933;DHT22;44716;51.022;6.818;2023-03-23T05:17:57;21.90;57.20
58933;DHT22;44716;51.022;6.818;2023-03-23T05:20:23;21.90;59.00
58933;DHT22;44716;51.022;6.818;2023-03-23T05:22:50;21.90;59.50
58933;DHT22;44716;51.022;6.818;2023-03-23T05:25:16;21.90;58.10
58933;DHT22;44716;51.022;6.818;2023-03-23T05:27:44;21.90;57.80
58933;DHT22;44716;51.022;6.818;2023-03-23T05:30:21;21.80;56.70
58933;DHT22;44716;51.022;6.818;2023-03-23T05:32:47;21.90;58.10
58933;DHT22;44716;51.022;6.818;2023-03-23T05:35:18;21.80;58.70
58933;DHT22;44716;51.022;6.818;2023-03-23T05:37:43;21.90;58.20
58933;DHT22;44716;51.022;6.818;2023-03-23T05:40:10;21.80;59.00
58933;DHT22;44716;51.022;6.818;2023-03-23T05:42:37;21.80;58.80
58933;DHT22;44716;51.022;6.818;2023-03-23T05:45:03;21.80;57.10
58933;DHT22;44716;51.022;6.818;2023-03-23T05:47:29;21.80;59.10
58933;DHT22;44716;51.022;6.818;2023-03-23T05:49:55;21.80;57.70
58933;DHT22;44716;51.022;6.818;2023-03-23T05:52:21;21.80;58.50
58933;DHT22;44716;51.022;6.818;2023-03-23T05:54:49;21.80;58.30
58933;DHT22;44716;51.022;6.818;2023-03-23T05:57:15;21.80;57.50
58933;DHT22;44716;51.022;6.818;2023-03-23T05:59:40;21.80;59.10
58933;DHT22;44716;51.022;6.818;2023-03-23T06:02:06;21.80;58.70
58933;DHT22;44716;51.022;6.818;2023-03-23T06:04:32;21.80;58.80
58933;DHT22;44716;51.022;6.818;2023-03-23T06:07:00;21.80;59.00
58933;DHT22;44716;51.022;6.818;2023-03-23T06:09:26;21.80;58.40
58933;DHT22;44716;51.022;6.818;2023-03-23T06:11:51;21.80;57.20
58933;DHT22;44716;51.022;6.818;2023-03-23T06:14:17;21.80;58.20
58933;DHT22;44716;51.022;6.818;2023-03-23T06:16:43;21.80;59.20
58933;DHT22;44716;51.022;6.818;2023-03-23T06:19:08;21.80;58.80
58933;DHT22;44716;51.022;6.818;2023-03-23T06:21:34;21.80;59.10
58933;DHT22;44716;51.022;6.818;2023-03-23T06:23:59;21.70;58.00
58933;DHT22;44716;51.022;6.818;2023-03-23T06:26:27;21.80;59.30
58933;DHT22;44716;51.022;6.818;2023-03-23T06:28:53;21.80;59.30
58933;DHT22;44716;51.022;6.818;2023-03-23T06:31:19;21.70;59.40
58933;DHT22;44716;51.022;6.818;2023-03-23T06:33:45;21.70;59.30
58933;DHT22;44716;51.022;6.818;2023-03-23T06:36:12;21.80;59.00
58933;DHT22;44716;51.022;6.818;2023-03-23T06:38:38;21.70;58.90
58933;DHT22;44716;51.022;6.818;2023-03-23T06:41:03;21.70;59.30
58933;DHT22;44716;51.022;6.818;2023-03-23T06:43:30;21.70;59.30
58933;DHT22;44716;51.022;6.818;2023-03-23T06:45:58;21.70;59.30
58933;DHT22;44716;51.022;6.818;2023-03-23T06:48:23;21.70;59.40
58933;DHT22;44716;51.022;6.818;2023-03-23T06:50:49;21.70;58.80
58933;DHT22;44716;51.022;6.818;2023-03-23T06:53:15;21.70;58.10
58933;DHT22;44716;51.022;6.818;2023-03-23T06:55:42;21.70;59.40
58933;DHT22;44716;51.022;6.818;2023-03-23T06:58:07;21.70;59.00
58933;DHT22;44716;51.022;6.818;2023-03-23T07:00:33;21.70;59.20
58933;DHT22;44716;51.022;6.818;2023-03-23T07:02:59;21.70;59.20
58933;DHT22;44716;51.022;6.818;2023-03-23T07:05:24;21.70;58.40
58933;DHT22;44716;51.022;6.818;2023-03-23T07:07:50;21.70;57.70
58933;DHT22;44716;51.022;6.818;2023-03-23T07:10:19;21.60;57.70
58933;DHT22;44716;51.022;6.818;2023-03-23T07:12:45;21.60;58.40
58933;DHT22;44716;51.022;6.818;2023-03-23T07:15:11;21.50;57.80
58933;DHT22;44716;51.022;6.818;2023-03-23T07:17:38;21.60;58.30
58933;DHT22;44716;51.022;6.818;2023-03-23T07:20:09;21.60;57.80
58933;DHT22;44716;51.022;6.818;2023-03-23T07:22:36;21.50;56.60
58933;DHT22;44716;51.022;6.818;2023-03-23T07:25:01;21.50;59.00
58933;DHT22;44716;51.022;6.818;2023-03-23T07:27:27;21.50;58.80
58933;DHT22;44716;51.022;6.818;2023-03-23T07:29:52;21.60;58.20
58933;DHT22;44716;51.022;6.818;2023-03-23T07:32:18;21.60;58.90
58933;DHT22;44716;51.022;6.818;2023-03-23T07:34:44;21.70;58.90
58933;DHT22;44716;51.022;6.818;2023-03-23T07:37:10;21.60;59.00
58933;DHT22;44716;51.022;6.818;2023-03-23T07:39:36;21.60;59.00
58933;DHT22;44716;51.022;6.818;2023-03-23T07:42:05;21.60;58.70
58933;DHT22;44716;51.022;6.818;2023-03-23T07:44:32;21.50;58.80
58933;DHT22;44716;51.022;6.818;2023-03-23T07:46:58;21.50;58.70
58933;DHT22;44716;51.022;6.818;2023-03-23T07:49:23;21.50;59.60
58933;DHT22;44716;51.022;6.818;2023-03-23T07:51:49;21.50;59.60
58933;DHT22;44716;51.022;6.818;2023-03-23T07:54:15;21.50;59.30
58933;DHT22;44716;51.022;6.818;2023-03-23T07:56:41;21.50;59.10
58933;DHT22;44716;51.022;6.818;2023-03-23T07:59:08;21.40;59.20
58933;DHT22;44716;51.022;6.818;2023-03-23T08:01:38;21.40;59.70
58933;DHT22;44716;51.022;6.818;2023-03-23T08:04:04;21.40;59.00
58933;DHT22;44716;51.022;6.818;2023-03-23T08:06:31;21.40;59.20
58933;DHT22;44716;51.022;6.818;2023-03-23T08:08:58;21.40;59.50
58933;DHT22;44716;51.022;6.818;2023-03-23T08:11:25;21.40;59.60
58933;DHT22;44716;51.022;6.818;2023-03-23T08:13:51;21.40;60.00
58933;DHT22;44716;51.022;6.818;2023-03-23T08:16:16;21.40;59.60
58933;DHT22;44716;51.022;6.818;2023-03-23T08:18:44;21.40;59.60
58933;DHT22;44716;51.022;6.818;2023-03-23T08:21:11;21.40;59.60
58933;DHT22;44716;51.022;6.818;2023-03-23T08:23:37;21.40;59.60
58933;DHT22;44716;51.022;6.818;2023-03-23T08:26:03;21.50;59.30
58933;DHT22;44716;51.022;6.818;2023-03-23T08:28:30;21.40;59.60
58933;DHT22;44716;51.022;6.818;2023-03-23T08:30:55;21.40;59.60
58933;DHT22;44716;51.022;6.818;2023-03-23T08:33:21;21.50;59.60
58933;DHT22;44716;51.022;6.818;2023-03-23T08:35:54;21.40;59.60
58933;DHT22;44716;51.022;6.818;2023-03-23T08:38:20;21.50;59.60
58933;DHT22;44716;51.022;6.818;2023-03-23T08:40:46;21.40;59.70
58933;DHT22;44716;51.022;6.818;2023-03-23T08:43:12;21.50;59.70
58933;DHT22;44716;51.022;6.818;2023-03-23T08:45:38;21.50;59.70
58933;DHT22;44716;51.022;6.818;2023-03-23T08:48:07;21.50;59.70
58933;DHT22;44716;51.022;6.818;2023-03-23T08:50:33;21.50;59.60
58933;DHT22;44716;51.022;6.818;2023-03-23T08:52:59;21.50;59.80
58933;DHT22;44716;51.022;6.818;2023-03-23T08:55:24;21.50;59.70
58933;DHT22;44716;51.022;6.818;2023-03-23T08:57:51;21.50;59.70
58933;DHT22;44716;51.022;6.818;2023-03-23T09:00:18;21.50;59.70
58933;DHT22;44716;51.022;6.818;2023-03-23T09:02:45;21.50;59.60
58933;DHT22;44716;51.022;6.818;2023-03-23T09:05:11;21.50;59.70
58933;DHT22;44716;51.022;6.818;2023-03-23T09:07:38;21.50;59.50
58933;DHT22;44716;51.022;6.818;2023-03-23T09:10:04;21.50;59.60
58933;DHT22;44716;51.022;6.818;2023-03-23T09:12:30;21.50;59.60
58933;DHT22;44716;51.022;6.818;2023-03-23T09:14:55;21.50;59.60
58933;DHT22;44716;51.022;6.818;2023-03-23T09:17:22;21.50;59.60
58933;DHT22;44716;51.022;6.818;2023-03-23T09:19:47;21.50;59.60
58933;DHT22;44716;51.022;6.818;2023-03-23T09:22:13;21.50;59.60
58933;DHT22;44716;51.022;6.818;2023-03-23T09:24:40;21.60;59.60
58933;DHT22;44716;51.022;6.818;2023-03-23T09:27:06;21.50;59.60
58933;DHT22;44716;51.022;6.818;2023-03-23T09:29:31;21.60;59.60
58933;DHT22;44716;51.022;6.818;2023-03-23T09:31:57;21.60;59.60
58933;DHT22;44716;51.022;6.818;2023-03-23T09:34:23;21.50;59.30
58933;DHT22;44716;51.022;6.818;2023-03-23T09:36:49;21.60;59.60
58933;DHT22;44716;51.022;6.818;2023-03-23T09:39:15;21.50;59.60
58933;DHT22;44716;51.022;6.818;2023-03-23T09:41:45;21.50;59.60
58933;DHT22;44716;51.022;6.818;2023-03-23T09:44:16;21.50;59.60
58933;DHT22;44716;51.022;6.818;2023-03-23T09:46:47;21.50;59.60
58933;DHT22;44716;51.022;6.818;2023-03-23T09:49:21;21.50;59.60
58933;DHT22;44716;51.022;6.818;2023-03-23T09:54:34;21.50;59.60
58933;DHT22;44716;51.022;6.818;2023-03-23T09:57:01;21.50;59.60
58933;DHT22;44716;51.022;6.818;2023-03-23T10:04:39;21.50;59.00
58933;DHT22;44716;51.022;6.818;2023-03-23T10:07:20;21.50;59.60
58933;DHT22;44716;51.022;6.818;2023-03-23T10:09:46;21.50;59.60
58933;DHT22;44716;51.022;6.818;2023-03-23T10:12:19;21.50;59.50
58933;DHT22;44716;51.022;6.818;2023-03-23T10:17:17;21.50;59.60
58933;DHT22;44716;51.022;6.818;2023-03-23T10:20:01;21.50;59.60
58933;DHT22;44716;51.022;6.818;2023-03-23T10:22:34;21.50;59.60
58933;DHT22;44716;51.022;6.818;2023-03-23T10:30:23;21.50;59.60
58933;DHT22;44716;51.022;6.818;2023-03-23T10:36:19;21.50;60.30
58933;DHT22;44716;51.022;6.818;2023-03-23T10:38:44;21.50;59.70
58933;DHT22;44716;51.022;6.818;2023-03-23T10:41:12;21.50;59.20
58933;DHT22;44716;51.022;6.818;2023-03-23T10:43:38;21.50;59.70
58933;DHT22;44716;51.022;6.818;2023-03-23T10:48:43;21.50;59.70
58933;DHT22;44716;51.022;6.818;2023-03-23T10:51:12;21.50;59.70
58933;DHT22;44716;51.022;6.818;2023-03-23T10:53:42;21.50;59.70
58933;DHT22;44716;51.022;6.818;2023-03-23T10:58:53;21.50;59.70
58933;DHT22;44716;51.022;6.818;2023-03-23T11:01:19;21.50;58.60
58933;DHT22;44716;51.022;6.818;2023-03-23T11:03:46;21.40;59.70
58933;DHT22;44716;51.022;6.818;2023-03-23T11:06:26;21.50;59.70
58933;DHT22;44716;51.022;6.818;2023-03-23T11:08:56;21.50;59.70
58933;DHT22;44716;51.022;6.818;2023-03-23T11:11:26;21.50;59.60
58933;DHT22;44716;51.022;6.818;2023-03-23T11:14:00;21.40;59.70
58933;DHT22;44716;51.022;6.818;2023-03-23T11:16:28;21.50;59.50
58933;DHT22;44716;51.022;6.818;2023-03-23T11:18:54;21.40;59.70
58933;DHT22;44716;51.022;6.818;2023-03-23T11:21:20;21.40;59.50
58933;DHT22;44716;51.022;6.818;2023-03-23T11:23:54;21.40;59.70
58933;DHT22;44716;51.022;6.818;2023-03-23T11:26:40;21.50;59.70
58933;DHT22;44716;51.022;6.818;2023-03-23T11:31:34;21.50;59.70
58933;DHT22;44716;51.022;6.818;2023-03-23T11:34:02;21.50;59.70
58933;DHT22;44716;51.022;6.818;2023-03-23T11:36:30;21.50;59.70
58933;DHT22;44716;51.022;6.818;2023-03-23T11:38:59;21.40;59.60
58933;DHT22;44716;51.022;6.818;2023-03-23T11:41:30;21.40;59.70
58933;DHT22;44716;51.022;6.818;2023-03-23T11:43:56;21.50;59.70
58933;DHT22;44716;51.022;6.818;2023-03-23T11:46:36;21.40;59.60
58933;DHT22;44716;51.022;6.818;2023-03-23T11:49:05;21.40;59.60
58933;DHT22;44716;51.022;6.818;2023-03-23T11:51:38;21.50;59.70
58933;DHT22;44716;51.022;6.818;2023-03-23T11:54:09;21.50;59.70
58933;DHT22;44716;51.022;6.818;2023-03-23T11:56:41;21.50;59.80
58933;DHT22;44716;51.022;6.818;2023-03-23T11:59:10;21.40;59.70
58933;DHT22;44716;51.022;6.818;2023-03-23T12:12:21;21.40;59.70
58933;DHT22;44716;51.022;6.818;2023-03-23T12:32:26;21.40;59.80
58933;DHT22;44716;51.022;6.818;2023-03-23T12:43:13;21.40;59.80
58933;DHT22;44716;51.022;6.818;2023-03-23T12:45:52;21.40;59.90
58933;DHT22;44716;51.022;6.818;2023-03-23T12:48:37;21.40;59.90
58933;DHT22;44716;51.022;6.818;2023-03-23T12:51:10;21.40;59.90
58933;DHT22;44716;51.022;6.818;2023-03-23T12:53:42;21.30;59.80
58933;DHT22;44716;51.022;6.818;2023-03-23T12:58:39;21.40;59.90
58933;DHT22;44716;51.022;6.818;2023-03-23T13:01:11;21.40;59.70
58933;DHT22;44716;51.022;6.818;2023-03-23T13:03:44;21.30;59.80
58933;DHT22;44716;51.022;6.818;2023-03-23T13:06:16;21.40;59.80
58933;DHT22;44716;51.022;6.818;2023-03-23T13:08:45;21.40;59.90
58933;DHT22;44716;51.022;6.818;2023-03-23T13:11:29;21.30;59.80
58933;DHT22;44716;51.022;6.818;2023-03-23T13:24:27;21.30;59.80
58933;DHT22;44716;51.022;6.818;2023-03-23T13:26:54;21.30;59.80
58933;DHT22;44716;51.022;6.818;2023-03-23T13:29:25;21.30;59.90
58933;DHT22;44716;51.022;6.818;2023-03-23T13:32:03;21.30;59.90
58933;DHT22;44716;51.022;6.818;2023-03-23T13:34:30;21.40;59.80
58933;DHT22;44716;51.022;6.818;2023-03-23T13:37:04;21.30;59.70
58933;DHT22;44716;51.022;6.818;2023-03-23T13:42:03;21.30;59.50
58933;DHT22;44716;51.022;6.818;2023-03-23T13:44:43;21.30;59.80
58933;DHT22;44716;51.022;6.818;2023-03-23T14:03:01;21.30;59.80
58933;DHT22;44716;51.022;6.818;2023-03-23T14:05:34;21.40;59.80
58933;DHT22;44716;51.022;6.818;2023-03-23T14:10:58;21.30;59.80
58933;DHT22;44716;51.022;6.818;2023-03-23T14:16:14;21.30;59.80
58933;DHT22;44716;51.022;6.818;2023-03-23T14:18:42;21.30;59.80
58933;DHT22;44716;51.022;6.818;2023-03-23T14:21:17;21.30;59.60
58933;DHT22;44716;51.022;6.818;2023-03-23T14:23:43;21.30;59.70
58933;DHT22;44716;51.022;6.818;2023-03-23T14:26:26;21.30;59.70
58933;DHT22;44716;51.022;6.818;2023-03-23T14:28:52;21.30;58.70
58933;DHT22;44716;51.022;6.818;2023-03-23T14:31:27;21.30;59.70
58933;DHT22;44716;51.022;6.818;2023-03-23T14:33:54;21.30;59.30
58933;DHT22;44716;51.022;6.818;2023-03-23T14:36:27;21.30;59.60
58933;DHT22;44716;51.022;6.818;2023-03-23T14:41:37;21.30;59.60
58933;DHT22;44716;51.022;6.818;2023-03-23T14:44:03;21.30;59.60
58933;DHT22;44716;51.022;6.818;2023-03-23T14:46:29;21.30;59.40
58933;DHT22;44716;51.022;6.818;2023-03-23T14:48:56;21.30;59.60
58933;DHT22;44716;51.022;6.818;2023-03-23T14:51:22;21.30;59.60
58933;DHT22;44716;51.022;6.818;2023-03-23T14:53:47;21.30;59.60
58933;DHT22;44716;51.022;6.818;2023-03-23T14:56:17;21.30;59.60
58933;DHT22;44716;51.022;6.818;2023-03-23T14:58:44;21.30;59.60
58933;DHT22;44716;51.022;6.818;2023-03-23T15:01:10;21.30;59.70
58933;DHT22;44716;51.022;6.818;2023-03-23T15:03:39;21.30;59.70
58933;DHT22;44716;51.022;6.818;2023-03-23T15:06:07;21.30;59.70
58933;DHT22;44716;51.022;6.818;2023-03-23T15:08:40;21.30;59.60
58933;DHT22;44716;51.022;6.818;2023-03-23T15:13:48;21.30;59.70
58933;DHT22;44716;51.022;6.818;2023-03-23T15:16:17;21.30;59.70
58933;DHT22;44716;51.022;6.818;2023-03-23T15:18:47;21.30;59.70
58933;DHT22;44716;51.022;6.818;2023-03-23T15:21:19;21.30;59.70
58933;DHT22;44716;51.022;6.818;2023-03-23T15:23:46;21.30;59.70
58933;DHT22;44716;51.022;6.818;2023-03-23T20:42:12;21.00;61.10
58933;DHT22;44716;51.022;6.818;2023-03-23T20:44:38;21.00;59.50
58933;DHT22;44716;51.022;6.818;2023-03-23T20:47:06;20.90;60.10
58933;DHT22;44716;51.022;6.818;2023-03-23T20:49:33;20.90;60.20
58933;DHT22;44716;51.022;6.818;2023-03-23T20:51:59;20.90;60.80
58933;DHT22;44716;51.022;6.818;2023-03-23T20:54:25;21.00;59.70
58933;DHT22;44716;51.022;6.818;2023-03-23T20:56:51;21.00;59.30
58933;DHT22;44716;51.022;6.818;2023-03-23T20:59:17;20.90;60.30
58933;DHT22;44716;51.022;6.818;2023-03-23T21:01:44;21.00;60.60
58933;DHT22;44716;51.022;6.818;2023-03-23T21:04:12;21.00;60.10
58933;DHT22;44716;51.022;6.818;2023-03-23T21:06:40;20.90;60.10
58933;DHT22;44716;51.022;6.818;2023-03-23T21:09:06;20.90;60.90
58933;DHT22;44716;51.022;6.818;2023-03-23T21:11:31;20.90;59.70
58933;DHT22;44716;51.022;6.818;2023-03-23T21:13:59;21.00;59.10
58933;DHT22;44716;51.022;6.818;2023-03-23T21:16:25;20.90;59.70
58933;DHT22;44716;51.022;6.818;2023-03-23T21:18:51;20.90;59.00
58933;DHT22;44716;51.022;6.818;2023-03-23T21:21:16;21.00;59.70
58933;DHT22;44716;51.022;6.818;2023-03-23T21:23:43;21.00;59.80
58933;DHT22;44716;51.022;6.818;2023-03-23T21:26:11;21.00;59.00
58933;DHT22;44716;51.022;6.818;2023-03-23T21:28:36;21.00;60.30
58933;DHT22;44716;51.022;6.818;2023-03-23T21:31:03;21.00;60.10
58933;DHT22;44716;51.022;6.818;2023-03-23T21:33:29;21.00;59.20
58933;DHT22;44716;51.022;6.818;2023-03-23T21:35:55;21.00;59.20
58933;DHT22;44716;51.022;6.818;2023-03-23T21:38:20;21.00;59.00
58933;DHT22;44716;51.022;6.818;2023-03-23T21:40:50;21.00;58.90
58933;DHT22;44716;51.022;6.818;2023-03-23T21:43:16;21.00;58.80
58933;DHT22;44716;51.022;6.818;2023-03-23T21:45:42;21.00;59.80
58933;DHT22;44716;51.022;6.818;2023-03-23T21:48:08;21.00;60.20
58933;DHT22;44716;51.022;6.818;2023-03-23T21:50:34;21.00;59.10
58933;DHT22;44716;51.022;6.818;2023-03-23T21:53:02;21.00;59.10
58933;DHT22;44716;51.022;6.818;2023-03-23T21:55:27;21.00;59.80
58933;DHT22;44716;51.022;6.818;2023-03-23T21:57:54;21.00;59.10
58933;DHT22;44716;51.022;6.818;2023-03-23T22:00:20;21.00;58.90
58933;DHT22;44716;51.022;6.818;2023-03-23T22:02:46;21.00;60.50
58933;DHT22;44716;51.022;6.818;2023-03-23T22:05:11;20.90;59.90
58933;DHT22;44716;51.022;6.818;2023-03-23T22:07:37;20.90;59.40
58933;DHT22;44716;51.022;6.818;2023-03-23T22:10:04;20.90;58.80
58933;DHT22;44716;51.022;6.818;2023-03-23T22:12:30;20.90;59.40
58933;DHT22;44716;51.022;6.818;2023-03-23T22:14:55;20.90;60.30
58933;DHT22;44716;51.022;6.818;2023-03-23T22:17:21;20.90;60.20
58933;DHT22;44716;51.022;6.818;2023-03-23T22:19:48;20.90;60.10
58933;DHT22;44716;51.022;6.818;2023-03-23T22:22:16;20.90;60.80
58933;DHT22;44716;51.022;6.818;2023-03-23T22:24:43;20.90;60.80
58933;DHT22;44716;51.022;6.818;2023-03-23T22:27:09;20.90;60.90
58933;DHT22;44716;51.022;6.818;2023-03-23T22:29:35;20.90;59.90
58933;DHT22;44716;51.022;6.818;2023-03-23T22:32:00;20.90;59.50
58933;DHT22;44716;51.022;6.818;2023-03-23T22:34:26;20.90;59.90
58933;DHT22;44716;51.022;6.818;2023-03-23T22:36:51;20.90;59.40
58933;DHT22;44716;51.022;6.818;2023-03-23T22:39:17;20.90;59.60
58933;DHT22;44716;51.022;6.818;2023-03-23T22:41:43;20.90;59.60
58933;DHT22;44716;51.022;6.818;2023-03-23T22:44:15;20.90;61.90
58933;DHT22;44716;51.022;6.818;2023-03-23T22:46:44;20.90;60.60
58933;DHT22;44716;51.022;6.818;2023-03-23T22:49:10;20.90;60.80
58933;DHT22;44716;51.022;6.818;2023-03-23T22:51:39;20.90;60.00